Time;durP1;ratioP1;P1;durP2;ratioP2;P2;SDS_P1;SDS_P2;PMS_P1;PMS_P2;Temp;Humidity;BMP_temperature;BMP_pressure;BME280_temperature;BME280_humidity;BME280_pressure;Samples;Min_cycle;Max_cycle;Signal;HPM_P1;HPM_P2
2021/12/24 00:02:18;;;;;;;88.83;34.47;;;;;;;12.76;100.00;100293.53;5096513;28;20477;-51
2021/12/24 00:04:44;;;;;;;81.73;30.27;;;;;;;12.83;100.00;100285.41;5096412;28;20039;-50
2021/12/24 00:07:09;;;;;;;90.07;35.30;;;;;;;12.73;100.00;100290.47;5096918;28;20453;-50
2021/12/24 00:09:36;;;;;;;94.70;33.97;;;;;;;12.58;100.00;100288.16;5078924;28;20086;-54
2021/12/24 00:12:10;;;;;;;92.25;35.40;;;;;;;12.70;100.00;100291.75;5078709;28;20461;-54
2021/12/24 00:14:36;;;;;;;87.68;31.17;;;;;;;12.63;100.00;100301.72;5096428;28;20081;-50
2021/12/24 00:17:04;;;;;;;85.43;34.93;;;;;;;12.67;100.00;100284.13;5096120;28;20063;-55
2021/12/24 00:35:40;;;;;;;78.75;32.65;;;;;;;12.92;100.00;100277.88;5095977;28;20070;-49
2021/12/24 00:38:10;;;;;;;75.35;31.85;;;;;;;12.86;100.00;100265.34;5096826;28;20040;-50
2021/12/24 00:40:46;;;;;;;77.18;30.98;;;;;;;13.21;100.00;100278.13;5077805;28;20122;-51
2021/12/24 00:43:15;;;;;;;66.25;27.55;;;;;;;12.93;100.00;100268.78;5078423;28;20043;-47
2021/12/24 00:45:44;;;;;;;61.95;25.98;;;;;;;12.80;100.00;100261.72;5077934;28;20041;-49
2021/12/24 00:48:15;;;;;;;59.83;27.90;;;;;;;12.93;100.00;100268.78;5095855;28;20422;-51
2021/12/24 00:50:56;;;;;;;65.05;30.25;;;;;;;13.01;100.00;100271.16;5095692;28;20045;-48
2021/12/24 00:56:13;;;;;;;63.00;29.60;;;;;;;13.01;100.00;100281.88;5095466;28;20076;-48
2021/12/24 00:58:40;;;;;;;58.97;27.80;;;;;;;13.19;100.00;100256.06;5078385;28;20036;-54
2021/12/24 01:01:08;;;;;;;60.70;27.77;;;;;;;13.23;100.00;100265.31;5095262;28;20062;-50
2021/12/24 01:03:34;;;;;;;56.22;24.70;;;;;;;13.16;100.00;100256.53;5095247;28;20038;-49
2021/12/24 01:06:00;;;;;;;58.97;29.35;;;;;;;12.99;100.00;100265.19;5077894;28;20245;-49
2021/12/24 01:08:26;;;;;;;58.63;27.50;;;;;;;12.71;100.00;100266.56;5095594;28;20446;-49
2021/12/24 01:10:58;;;;;;;58.25;27.60;;;;;;;13.17;100.00;100258.16;5060667;28;20355;-51
2021/12/24 01:13:27;;;;;;;54.83;25.83;;;;;;;13.05;100.00;100276.91;5095312;28;20400;-51
2021/12/24 01:21:05;;;;;;;52.83;25.08;;;;;;;13.36;100.00;100250.03;5061854;28;20036;-51
2021/12/24 01:23:52;;;;;;;62.10;26.92;;;;;;;13.66;100.00;100255.41;5095251;28;20068;-51
2021/12/24 01:26:35;;;;;;;59.85;27.75;;;;;;;13.10;100.00;100262.78;5077868;28;20067;-47
2021/12/24 01:45:00;;;;;;;65.00;27.73;;;;;;;13.22;100.00;100249.41;5076916;28;20028;-49
2021/12/24 01:47:26;;;;;;;69.05;28.67;;;;;;;13.71;100.00;100239.41;5094724;28;20030;-52
2021/12/24 01:49:52;;;;;;;77.20;30.10;;;;;;;13.47;100.00;100252.78;5094374;28;20111;-52
2021/12/24 01:52:19;;;;;;;74.55;29.08;;;;;;;13.49;100.00;100241.84;5076405;28;20115;-49
2021/12/24 01:54:52;;;;;;;75.93;29.02;;;;;;;13.52;100.00;100238.69;5076625;28;20130;-47
2021/12/24 01:57:18;;;;;;;79.55;30.00;;;;;;;13.88;100.00;100244.13;5076192;28;20055;-51
2021/12/24 01:59:43;;;;;;;69.55;26.77;;;;;;;14.23;100.00;100246.03;5076336;28;20040;-51
2021/12/24 02:02:09;;;;;;;73.50;29.53;;;;;;;13.75;100.00;100254.06;5059708;28;20135;-49
2021/12/24 02:04:35;;;;;;;93.82;32.25;;;;;;;13.63;100.00;100231.69;5076421;28;20465;-52
2021/12/24 02:07:01;;;;;;;77.40;30.35;;;;;;;13.74;100.00;100241.66;5076218;28;20040;-48
2021/12/24 02:09:26;;;;;;;86.05;30.60;;;;;;;13.75;100.00;100242.47;5059533;28;20034;-51
2021/12/24 02:11:53;;;;;;;85.07;31.33;;;;;;;13.46;100.00;100247.66;5094000;28;20117;-48
2021/12/24 02:14:22;;;;;;;75.13;30.83;;;;;;;13.76;100.00;100250.31;5059670;28;20657;-47
2021/12/24 02:30:34;;;;;;;112.67;36.70;;;;;;;13.70;100.00;100250.41;5094527;28;20048;-48
2021/12/24 02:33:01;;;;;;;98.05;32.75;;;;;;;13.71;100.00;100254.72;5076276;28;20331;-47
2021/12/24 02:35:27;;;;;;;124.20;39.77;;;;;;;14.23;100.00;100256.78;5076456;28;20067;-49
2021/12/24 02:37:52;;;;;;;105.50;34.33;;;;;;;14.15;100.00;100252.56;5093610;28;20297;-51
2021/12/24 02:40:18;;;;;;;103.60;36.85;;;;;;;13.95;100.00;100246.72;5076259;28;20271;-51
2021/12/24 02:42:49;;;;;;;91.20;32.40;;;;;;;14.10;100.00;100247.06;5093842;28;20467;-50
2021/12/24 02:45:15;;;;;;;112.22;34.33;;;;;;;13.72;100.00;100245.63;5075747;28;20120;-51
2021/12/24 02:48:08;;;;;;;102.70;36.88;;;;;;;14.30;100.00;100244.03;5093469;28;20075;-52
2021/12/24 02:55:54;;;;;;;121.40;37.45;;;;;;;14.24;100.00;100231.53;5093942;28;20292;-49
2021/12/24 02:58:20;;;;;;;104.00;35.15;;;;;;;14.22;100.00;100236.31;5059067;28;20081;-48
2021/12/24 03:00:45;;;;;;;93.20;33.47;;;;;;;14.02;100.00;100239.34;5076324;28;20370;-51
2021/12/24 03:03:12;;;;;;;114.03;33.40;;;;;;;14.24;100.00;100238.75;5075471;28;20256;-50
2021/12/24 03:05:38;;;;;;;102.80;34.70;;;;;;;14.16;100.00;100235.38;5075909;28;20040;-51
2021/12/24 03:08:04;;;;;;;107.57;32.17;;;;;;;14.15;100.00;100231.06;5093502;28;20249;-52
2021/12/24 03:10:29;;;;;;;98.53;30.80;;;;;;;14.27;100.00;100227.53;5093223;28;20040;-52
2021/12/24 03:12:55;;;;;;;111.45;32.53;;;;;;;14.76;100.00;100222.69;5093243;28;20035;-50
2021/12/24 03:15:24;;;;;;;96.45;31.15;;;;;;;14.62;100.00;100234.75;5093879;28;20032;-48
2021/12/24 03:17:54;;;;;;;103.40;29.27;;;;;;;14.18;100.00;100233.28;5075307;28;20074;-47
2021/12/24 03:20:22;;;;;;;86.40;28.63;;;;;;;14.29;100.00;100233.50;5075912;28;20355;-48
2021/12/24 03:23:03;;;;;;;;;;;;;;;14.20;100.00;100241.91;5075677;28;20768;-47
2021/12/24 03:25:31;;;;;;;90.00;29.00;;;;;;;14.49;100.00;100231.25;5077696;28;19908;-50
2021/12/24 03:27:57;;;;;;;89.20;30.50;;;;;;;14.38;100.00;100240.16;5097417;28;20721;-50
2021/12/24 03:30:23;;;;;;;104.70;31.95;;;;;;;14.13;100.00;100230.47;5097584;28;20342;-48
2021/12/24 03:32:49;;;;;;;92.53;31.88;;;;;;;14.41;100.00;100237.00;5078831;28;20035;-52
2021/12/24 03:35:14;;;;;;;87.72;29.58;;;;;;;14.27;100.00;100240.97;5078978;28;20028;-52
2021/12/24 03:37:40;;;;;;;116.38;32.17;;;;;;;14.38;100.00;100237.47;5078963;28;20036;-54
2021/12/24 03:40:07;;;;;;;80.97;30.13;;;;;;;14.32;100.00;100243.81;5078951;28;20136;-54
2021/12/24 03:42:37;;;;;;;80.72;29.17;;;;;;;14.92;100.00;100241.81;5079171;28;20260;-55
2021/12/24 03:45:19;;;;;;;93.33;30.30;;;;;;;14.48;100.00;100250.34;5078830;28;20040;-48
2021/12/24 03:47:52;;;;;;;83.03;26.27;;;;;;;14.61;100.00;100244.69;5078501;28;20273;-51
2021/12/24 03:50:18;;;;;;;86.77;27.73;;;;;;;14.35;100.00;100254.09;5079235;28;20279;-50
2021/12/24 03:53:06;;;;;;;74.43;26.40;;;;;;;14.24;100.00;100252.19;5078763;28;20257;-52
2021/12/24 03:55:32;;;;;;;64.07;23.00;;;;;;;14.24;100.00;100244.13;5079029;28;20077;-50
2021/12/24 03:57:58;;;;;;;75.10;24.73;;;;;;;14.47;100.00;100246.00;5079202;28;20281;-50
2021/12/24 04:00:42;;;;;;;74.23;26.70;;;;;;;14.48;100.00;100250.34;5096855;28;20114;-52
2021/12/24 04:03:23;;;;;;;68.60;23.67;;;;;;;14.36;100.00;100257.56;5096749;28;20376;-51
2021/12/24 04:06:11;;;;;;;72.67;25.23;;;;;;;14.19;100.00;100251.03;5088009;28;20766;-49
2021/12/24 04:08:56;;;;;;;81.97;25.40;;;;;;;14.70;100.00;100239.75;5081662;28;20752;-52
2021/12/24 04:11:44;;;;;;;86.70;24.73;;;;;;;14.03;100.00;100251.72;5088465;28;20276;-49
2021/12/24 04:14:10;;;;;;;61.83;21.97;;;;;;;13.97;100.00;100245.44;5078460;28;20851;-49
2021/12/24 04:16:37;;;;;;;77.23;25.57;;;;;;;14.27;100.00;100240.97;5078296;28;20020;-49
2021/12/24 04:19:38;;;;;;;84.73;28.20;;;;;;;14.18;100.00;100244.03;5078635;28;20288;-50
2021/12/24 04:24:52;;;;;;;69.37;25.07;;;;;;;14.46;100.00;100258.63;5078192;28;20288;-48
2021/12/24 04:27:20;;;;;;;79.73;24.07;;;;;;;14.59;100.00;100256.75;5096554;28;20261;-54
2021/12/24 04:29:46;;;;;;;84.47;25.23;;;;;;;13.92;100.00;100247.97;5078891;28;20319;-54
2021/12/24 04:32:19;;;;;;;83.82;24.75;;;;;;;14.67;100.00;100247.50;5077970;28;20261;-54
2021/12/24 04:38:30;;;;;;;72.85;23.05;;;;;;;14.16;100.00;100248.81;5043504;28;20367;-49
2021/12/24 04:52:03;;;;;;;58.67;16.87;;;;;;;14.05;100.00;100228.94;5077462;28;20273;-47
2021/12/24 05:05:25;;;;;;;48.55;17.10;;;;;;;13.57;100.00;100224.56;5077449;28;20311;-48
2021/12/24 05:08:14;;;;;;;50.07;17.13;;;;;;;14.00;100.00;100230.69;5077958;28;20063;-47
2021/12/24 05:10:41;;;;;;;60.13;17.05;;;;;;;13.87;100.00;100231.72;5077800;28;20265;-46
2021/12/24 05:13:12;;;;;;;52.50;18.50;;;;;;;14.11;100.00;100232.56;5078076;28;20420;-49
2021/12/24 05:16:05;;;;;;;48.58;17.77;;;;;;;13.96;100.00;100249.19;5065973;28;20150;-48
2021/12/24 05:21:37;;;;;;;70.35;20.38;;;;;;;14.12;100.00;100261.09;5094557;28;20357;-51
2021/12/24 05:24:06;;;;;;;88.93;27.40;;;;;;;13.68;100.00;100261.38;5061681;28;20150;-50
2021/12/24 05:26:33;;;;;;;64.77;23.50;;;;;;;14.24;100.00;100269.19;5095048;28;20261;-49
2021/12/24 05:28:59;;;;;;;71.60;22.40;;;;;;;14.05;100.00;100273.81;5095580;28;20279;-47
2021/12/24 05:31:25;;;;;;;63.63;23.05;;;;;;;14.14;100.00;100280.50;5077147;28;20385;-48
2021/12/24 05:33:52;;;;;;;69.50;21.13;;;;;;;14.42;100.00;100273.59;5060617;28;20036;-49
2021/12/24 05:36:18;;;;;;;81.65;22.75;;;;;;;13.89;100.00;100276.16;5094588;28;20027;-47
2021/12/24 05:38:44;;;;;;;71.55;21.25;;;;;;;13.85;100.00;100271.47;5076689;28;20040;-53
2021/12/24 05:41:10;;;;;;;66.20;20.88;;;;;;;14.30;100.00;100270.09;5076975;28;20111;-61
2021/12/24 05:43:36;;;;;;;57.80;18.80;;;;;;;13.85;100.00;100279.53;5060334;28;20066;-50
2021/12/24 05:46:02;;;;;;;65.13;18.63;;;;;;;14.50;100.00;100269.75;5095068;28;20028;-53
2021/12/24 05:48:37;;;;;;;74.73;21.50;;;;;;;14.18;100.00;100276.28;5076799;28;20051;-46
2021/12/24 05:51:09;;;;;;;74.40;20.17;;;;;;;14.44;100.00;100278.75;5061319;28;20426;-54
2021/12/24 05:53:53;;;;;;;71.53;21.43;;;;;;;14.08;100.00;100278.75;5094585;28;20287;-52
2021/12/24 05:56:21;;;;;;;66.03;18.37;;;;;;;13.98;100.00;100275.81;5076238;28;20299;-53
2021/12/24 05:58:51;;;;;;;78.60;22.77;;;;;;;14.29;100.00;100284.59;5076726;28;20295;-52
2021/12/24 06:01:18;;;;;;;68.37;18.20;;;;;;;13.72;100.00;100269.81;5077025;28;20335;-51
2021/12/24 06:03:47;;;;;;;59.90;17.30;;;;;;;13.93;100.00;100265.75;5094498;28;20244;-53
2021/12/24 06:06:12;;;;;;;65.30;14.95;;;;;;;13.88;100.00;100274.53;5094164;28;20265;-51
2021/12/24 06:08:37;;;;;;;51.67;13.53;;;;;;;13.72;100.00;100267.13;5076221;28;20110;-48
2021/12/24 06:11:03;;;;;;;41.97;13.07;;;;;;;13.61;100.00;100272.25;5076254;28;20047;-53
2021/12/24 06:13:29;;;;;;;47.05;12.77;;;;;;;13.68;100.00;100269.44;5094272;28;20048;-49
2021/12/24 06:15:55;;;;;;;45.50;13.23;;;;;;;14.05;100.00;100271.97;5094264;28;20119;-49
2021/12/24 06:18:25;;;;;;;66.97;15.88;;;;;;;13.85;100.00;100277.69;5076333;28;20070;-48
2021/12/24 06:20:52;;;;;;;56.93;14.40;;;;;;;14.14;100.00;100277.81;5060271;28;20078;-52
2021/12/24 06:23:20;;;;;;;47.63;13.80;;;;;;;14.23;100.00;100274.78;5093771;28;20279;-49
2021/12/24 06:25:46;;;;;;;32.70;10.97;;;;;;;13.62;100.00;100262.31;5093765;28;20669;-50
2021/12/24 06:28:12;;;;;;;33.85;10.95;;;;;;;13.76;100.00;100270.97;5093759;28;20271;-52
2021/12/24 06:30:39;;;;;;;38.33;10.57;;;;;;;13.49;100.00;100274.06;5093731;28;20036;-51
2021/12/24 06:33:05;;;;;;;34.22;10.95;;;;;;;13.59;100.00;100270.81;5093686;28;20334;-49
2021/12/24 06:35:30;;;;;;;36.25;10.68;;;;;;;13.64;100.00;100272.84;5093597;28;20039;-49
2021/12/24 06:37:56;;;;;;;51.10;12.38;;;;;;;13.51;100.00;100274.66;5059208;28;20111;-51
2021/12/24 06:40:23;;;;;;;35.58;10.50;;;;;;;13.45;100.00;100276.38;5093567;28;20044;-49
2021/12/24 06:42:49;;;;;;;38.30;11.55;;;;;;;13.56;100.00;100269.41;5093517;28;20036;-50
2021/12/24 06:45:19;;;;;;;41.95;11.52;;;;;;;13.71;100.00;100279.72;5076490;28;20066;-54
2021/12/24 06:47:45;;;;;;;34.80;10.70;;;;;;;13.45;100.00;100271.00;5094532;28;20036;-51
2021/12/24 06:50:11;;;;;;;33.10;8.77;;;;;;;13.15;100.00;100273.69;5093416;28;20423;-47
2021/12/24 06:52:36;;;;;;;39.67;10.90;;;;;;;13.28;100.00;100264.63;5093749;28;20040;-51
2021/12/24 06:55:03;;;;;;;47.97;10.57;;;;;;;13.14;100.00;100269.34;5093927;28;20685;-49
2021/12/24 06:57:30;;;;;;;37.97;9.07;;;;;;;13.44;100.00;100263.19;5071694;28;20049;-47
2021/12/24 06:59:58;;;;;;;32.78;9.77;;;;;;;13.24;100.00;100258.88;5054701;28;20075;-49
2021/12/24 07:02:24;;;;;;;38.63;10.17;;;;;;;13.31;100.00;100262.28;5072720;28;20127;-49
2021/12/24 07:04:49;;;;;;;40.20;10.83;;;;;;;12.94;100.00;100274.97;5073359;28;20036;-53
2021/12/24 07:07:14;;;;;;;38.63;10.47;;;;;;;12.96;100.00;100278.22;5073409;28;20119;-53
2021/12/24 07:09:42;;;;;;;35.03;10.80;;;;;;;13.29;100.00;100264.38;5072147;28;20374;-49
2021/12/24 07:12:10;;;;;;;35.67;9.98;;;;;;;13.03;100.00;100277.13;5072972;28;20032;-51
2021/12/24 07:14:37;;;;;;;34.65;9.93;;;;;;;13.10;100.00;100295.00;5072373;28;20021;-49
2021/12/24 07:17:03;;;;;;;53.28;11.50;;;;;;;13.18;100.00;100275.91;5073227;28;20075;-51
2021/12/24 07:19:29;;;;;;;49.33;11.45;;;;;;;13.39;100.00;100292.59;5071647;28;20036;-52
2021/12/24 07:21:54;;;;;;;49.03;11.37;;;;;;;13.28;100.00;100300.34;5071991;28;20489;-51
2021/12/24 07:24:20;;;;;;;49.67;12.77;;;;;;;13.31;100.00;100293.72;5072846;28;20292;-50
2021/12/24 07:26:46;;;;;;;41.83;11.35;;;;;;;12.87;100.00;100294.66;5071810;28;20036;-52
2021/12/24 07:29:11;;;;;;;52.23;10.53;;;;;;;12.74;100.00;100290.25;5072962;28;20466;-49
2021/12/24 07:31:37;;;;;;;53.83;13.52;;;;;;;12.81;100.00;100289.34;5073097;28;20548;-48
2021/12/24 07:34:03;;;;;;;47.10;11.70;;;;;;;13.07;100.00;100295.44;5073370;28;20044;-50
2021/12/24 07:36:29;;;;;;;34.03;11.13;;;;;;;13.46;100.00;100285.28;5071621;28;20120;-52
2021/12/24 07:38:54;;;;;;;42.40;11.05;;;;;;;13.03;100.00;100298.59;5073095;28;20055;-53
2021/12/24 07:41:20;;;;;;;53.43;12.53;;;;;;;13.31;100.00;100299.88;5071509;28;20037;-52
2021/12/24 07:43:46;;;;;;;47.33;14.68;;;;;;;13.43;100.00;100299.16;5071981;28;20353;-50
2021/12/24 07:46:11;;;;;;;65.75;16.70;;;;;;;13.90;100.00;100293.91;5072859;28;20477;-48
2021/12/24 07:48:44;;;;;;;40.30;12.40;;;;;;;13.71;100.00;100300.41;5073720;28;20087;-51
2021/12/24 07:54:00;;;;;;;40.90;10.80;;;;;;;13.24;100.00;100317.97;5071372;28;20032;-50
2021/12/24 07:56:31;;;;;;;33.15;9.75;;;;;;;13.42;100.00;100302.88;5078800;28;20122;-49
2021/12/24 07:58:58;;;;;;;52.05;11.40;;;;;;;13.49;100.00;100290.19;5075253;28;20116;-51
2021/12/24 08:01:27;;;;;;;;;;;;;;;13.18;100.00;100318.88;5093246;28;20031;-52
2021/12/24 08:03:54;;;;;;;51.40;10.95;;;;;;;13.40;100.00;100315.69;5075042;28;19912;-52
2021/12/24 08:06:26;;;;;;;41.25;11.07;;;;;;;13.54;100.00;100316.38;5092580;28;20115;-50
2021/12/24 08:08:51;;;;;;;33.80;11.90;;;;;;;13.22;100.00;100309.31;5092596;28;20040;-52
2021/12/24 08:11:17;;;;;;;53.50;13.17;;;;;;;13.09;100.00;100315.66;5094132;28;20020;-52
2021/12/24 08:13:43;;;;;;;47.37;12.03;;;;;;;13.25;100.00;100313.38;5096713;28;20047;-53
2021/12/24 08:16:09;;;;;;;48.40;15.80;;;;;;;13.43;100.00;100307.22;5096332;28;20602;-47
2021/12/24 08:18:36;;;;;;;51.13;13.70;;;;;;;12.89;100.00;100308.66;5061495;28;20047;-51
2021/12/24 08:21:03;;;;;;;60.13;17.73;;;;;;;13.31;100.00;100304.44;5096023;28;20032;-54
2021/12/24 08:23:29;;;;;;;59.97;19.77;;;;;;;13.47;100.00;100305.72;5077969;28;20032;-51
2021/12/24 08:25:58;;;;;;;63.22;18.73;;;;;;;13.21;100.00;100302.31;5095971;28;20040;-51
2021/12/24 08:28:25;;;;;;;58.10;19.15;;;;;;;13.08;100.00;100297.91;5096132;28;20457;-52
2021/12/24 08:30:51;;;;;;;51.67;16.77;;;;;;;13.08;100.00;100303.28;5077807;28;20040;-51
2021/12/24 08:33:16;;;;;;;62.70;18.97;;;;;;;13.49;100.00;100300.94;5096276;28;20082;-53
2021/12/24 08:35:42;;;;;;;52.20;17.27;;;;;;;13.64;100.00;100307.75;5077969;28;20034;-52
2021/12/24 08:38:08;;;;;;;55.85;17.73;;;;;;;13.38;100.00;100320.47;5095893;28;20354;-50
2021/12/24 08:40:33;;;;;;;47.88;16.80;;;;;;;13.80;100.00;100306.28;5095846;28;20028;-52
2021/12/24 08:43:00;;;;;;;43.80;16.67;;;;;;;13.65;100.00;100296.78;5096080;28;20040;-49
2021/12/24 08:45:26;;;;;;;;;;;;;;;13.55;100.00;100305.38;5096197;28;20248;-53
2021/12/24 08:47:51;;;;;;;49.30;18.23;;;;;;;13.39;100.00;100298.75;5095702;28;20357;-52
2021/12/24 08:50:17;;;;;;;50.83;14.70;;;;;;;13.29;100.00;100291.25;5078771;28;20032;-48
2021/12/24 08:52:44;;;;;;;54.53;18.70;;;;;;;13.52;100.00;100289.72;5078154;28;20323;-46
2021/12/24 08:55:11;;;;;;;64.38;17.77;;;;;;;13.87;100.00;100293.56;5095119;28;20372;-47
2021/12/24 08:57:38;;;;;;;49.83;15.70;;;;;;;13.50;100.00;100293.69;5096014;28;20373;-46
2021/12/24 09:00:08;;;;;;;46.92;15.70;;;;;;;13.86;100.00;100294.59;5077393;28;20273;-47
2021/12/24 09:02:34;;;;;;;48.53;15.80;;;;;;;13.64;100.00;100288.97;5077696;28;20035;-49
2021/12/24 09:04:59;;;;;;;56.47;14.53;;;;;;;13.22;100.00;100287.00;5095208;28;20253;-47
2021/12/24 09:07:25;;;;;;;51.77;15.40;;;;;;;13.70;100.00;100282.66;5095388;28;20071;-47
2021/12/24 09:09:50;;;;;;;51.97;14.33;;;;;;;13.48;100.00;100283.19;5095633;28;20024;-51
2021/12/24 09:12:16;;;;;;;57.20;16.30;;;;;;;13.60;100.00;100283.22;5077204;28;20123;-49
2021/12/24 09:14:41;;;;;;;49.20;15.97;;;;;;;13.15;100.00;100292.47;5077582;28;20272;-50
2021/12/24 09:17:07;;;;;;;58.75;16.35;;;;;;;13.65;100.00;100282.53;5095315;28;20066;-47
2021/12/24 09:19:34;;;;;;;57.27;17.30;;;;;;;13.41;100.00;100274.38;5095814;28;20036;-47
2021/12/24 09:21:59;;;;;;;54.53;16.43;;;;;;;13.49;100.00;100276.75;5077448;28;20032;-50
2021/12/24 09:24:27;;;;;;;49.13;15.95;;;;;;;13.87;100.00;100272.06;5059858;28;20602;-54
2021/12/24 09:26:57;;;;;;;54.57;14.37;;;;;;;13.29;100.00;100266.25;5094833;28;20054;-52
2021/12/24 09:29:24;;;;;;;53.03;15.67;;;;;;;13.58;100.00;100271.88;5095230;28;20276;-50
2021/12/24 09:31:50;;;;;;;43.70;15.15;;;;;;;13.53;100.00;100275.25;5095079;28;20253;-48
2021/12/24 09:34:16;;;;;;;47.20;15.63;;;;;;;13.56;100.00;100277.47;5076680;28;20480;-51
2021/12/24 09:36:41;;;;;;;50.23;15.00;;;;;;;13.83;100.00;100266.31;5094735;28;20036;-55
2021/12/24 09:39:09;;;;;;;50.88;15.55;;;;;;;13.87;100.00;100277.44;5077343;28;20040;-50
2021/12/24 09:41:34;;;;;;;34.13;12.90;;;;;;;13.44;100.00;100279.31;5094650;28;20039;-50
2021/12/24 09:44:02;;;;;;;39.30;14.23;;;;;;;13.77;100.00;100278.81;5094763;28;20361;-52
2021/12/24 09:46:29;;;;;;;48.27;14.87;;;;;;;13.99;100.00;100278.28;5094420;28;20032;-51
2021/12/24 09:48:55;;;;;;;48.90;14.23;;;;;;;13.99;100.00;100282.81;5076607;28;20260;-50
2021/12/24 09:51:26;;;;;;;43.80;13.80;;;;;;;13.83;100.00;100285.13;5076272;28;20791;-52
2021/12/24 09:53:52;;;;;;;44.00;14.23;;;;;;;14.19;100.00;100275.25;5076276;28;20312;-51
2021/12/24 09:56:20;;;;;;;;;;;;;;;14.14;100.00;100277.00;5094357;28;20765;-48
2021/12/24 09:58:45;;;;;;;44.03;14.10;;;;;;;13.96;100.00;100280.59;5094310;28;19912;-53
2021/12/24 10:01:33;;;;;;;40.47;12.40;;;;;;;13.84;100.00;100269.84;5094552;28;20054;-52
2021/12/24 10:04:04;;;;;;;44.20;12.48;;;;;;;13.60;100.00;100281.31;5076123;28;20299;-51
2021/12/24 10:06:30;;;;;;;42.60;13.27;;;;;;;13.98;100.00;100276.63;5076285;28;20438;-51
2021/12/24 10:09:02;;;;;;;38.33;13.60;;;;;;;13.88;100.00;100273.69;5094079;28;20288;-49
2021/12/24 10:11:30;;;;;;;40.63;14.00;;;;;;;13.94;100.00;100278.13;5094033;28;20462;-48
2021/12/24 10:14:04;;;;;;;35.63;12.37;;;;;;;14.30;100.00;100276.28;5094307;28;20336;-49
2021/12/24 10:16:30;;;;;;;49.10;13.07;;;;;;;13.97;100.00;100266.94;5094203;28;20271;-48
2021/12/24 10:18:58;;;;;;;37.47;12.63;;;;;;;14.28;100.00;100278.41;5093703;28;20253;-49
2021/12/24 10:21:27;;;;;;;43.97;12.43;;;;;;;13.96;100.00;100269.84;5076203;28;20054;-50
2021/12/24 10:23:59;;;;;;;36.87;11.33;;;;;;;13.98;100.00;100279.31;5093668;28;20605;-47
2021/12/24 10:26:35;;;;;;;38.03;12.80;;;;;;;14.26;100.00;100264.38;5075771;28;20291;-50
2021/12/24 10:29:07;;;;;;;26.07;9.30;;;;;;;13.89;100.00;100275.31;5094040;28;20261;-49
2021/12/24 10:31:54;;;;;;;42.43;11.93;;;;;;;14.12;100.00;100269.16;5093852;28;20268;-50
2021/12/24 10:34:34;;;;;;;38.28;11.07;;;;;;;14.14;100.00;100271.59;5092839;28;20417;-50
2021/12/24 10:37:02;;;;;;;34.27;9.80;;;;;;;13.94;100.00;100278.13;5094210;28;20058;-47
2021/12/24 10:39:33;;;;;;;35.17;10.03;;;;;;;14.06;100.00;100272.75;5093497;28;20298;-47
2021/12/24 10:42:01;;;;;;;37.87;9.87;;;;;;;14.01;100.00;100280.72;5075618;28;20275;-52
2021/12/24 10:44:32;;;;;;;33.07;9.30;;;;;;;14.11;100.00;100277.44;5093438;28;20340;-51
2021/12/24 10:47:03;;;;;;;35.80;9.30;;;;;;;14.11;100.00;100269.38;5094510;28;20777;-51
2021/12/24 10:49:48;;;;;;;39.10;10.70;;;;;;;13.99;100.00;100269.38;5093659;28;20749;-54
2021/12/24 10:54:58;;;;;;;29.23;8.10;;;;;;;14.12;100.00;100262.97;5093750;28;20273;-49
2021/12/24 10:57:32;;;;;;;24.60;7.97;;;;;;;14.21;100.00;100266.97;5093345;28;20280;-52
2021/12/24 11:00:01;;;;;;;40.47;13.43;;;;;;;14.15;100.00;100263.31;5093621;28;20671;-49
2021/12/24 11:02:37;;;;;;;30.77;10.60;;;;;;;14.36;100.00;100266.47;5075583;28;20249;-52
2021/12/24 11:05:04;;;;;;;29.00;8.47;;;;;;;14.34;100.00;100260.53;5093419;28;20280;-54
2021/12/24 11:07:35;;;;;;;30.70;8.13;;;;;;;14.35;100.00;100275.59;5075366;28;20261;-51
2021/12/24 11:10:30;;;;;;;38.10;8.87;;;;;;;14.55;100.00;100280.59;5093609;28;20257;-50
2021/12/24 11:13:09;;;;;;;26.83;6.63;;;;;;;14.31;100.00;100277.13;5071621;28;20379;-50
2021/12/24 11:15:37;;;;;;;37.63;8.13;;;;;;;14.59;100.00;100278.28;5093352;28;20574;-53
2021/12/24 11:18:13;;;;;;;34.40;8.27;;;;;;;14.48;100.00;100283.41;5093566;28;20386;-51
2021/12/24 11:20:40;;;;;;;29.33;7.43;;;;;;;14.39;100.00;100284.84;5076017;28;20704;-49
2021/12/24 11:23:12;;;;;;;27.63;7.90;;;;;;;14.24;100.00;100277.25;5058241;28;20613;-50
2021/12/24 11:25:46;;;;;;;35.63;7.43;;;;;;;13.99;100.00;100277.44;5093259;28;20267;-48
2021/12/24 11:28:14;;;;;;;27.57;7.57;;;;;;;14.39;100.00;100274.06;5093553;28;20718;-52
2021/12/24 11:30:43;;;;;;;28.60;7.60;;;;;;;14.02;100.00;100267.06;5092972;28;20310;-50
2021/12/24 11:33:21;;;;;;;37.20;9.27;;;;;;;14.26;100.00;100263.53;5093077;28;20345;-51
2021/12/24 11:35:48;;;;;;;36.57;8.37;;;;;;;14.38;100.00;100264.38;5093250;28;20756;-53
2021/12/24 11:38:21;;;;;;;35.57;8.27;;;;;;;14.13;100.00;100272.66;5092956;28;20280;-51
2021/12/24 11:40:48;;;;;;;33.33;10.10;;;;;;;14.26;100.00;100263.53;5093311;28;20271;-48
2021/12/24 11:43:15;;;;;;;39.53;9.17;;;;;;;13.93;100.00;100270.31;5092805;28;20276;-51
2021/12/24 11:45:40;;;;;;;;;;;;;;;13.65;100.00;100263.72;5093842;28;20264;-48
2021/12/24 11:48:06;;;;;;;35.27;11.03;;;;;;;13.98;100.00;100255.13;5079119;28;19912;-48
2021/12/24 11:50:33;;;;;;;41.35;11.18;;;;;;;14.25;100.00;100269.97;5096896;28;20460;-52
2021/12/24 11:53:03;;;;;;;52.37;10.80;;;;;;;14.34;100.00;100257.81;5079529;28;20453;-50
2021/12/24 11:55:44;;;;;;;39.47;10.23;;;;;;;14.51;100.00;100252.53;5096771;28;20379;-53
2021/12/24 11:58:24;;;;;;;30.70;9.47;;;;;;;14.26;100.00;100237.47;5096913;28;20257;-48
2021/12/24 12:00:55;;;;;;;38.40;9.97;;;;;;;14.25;100.00;100245.78;5078430;28;20257;-53
2021/12/24 12:03:34;;;;;;;32.87;10.83;;;;;;;14.16;100.00;100238.06;5078653;28;20309;-49
2021/12/24 12:06:03;;;;;;;35.57;9.13;;;;;;;13.92;100.00;100242.59;5096385;28;20268;-49
2021/12/24 12:08:33;;;;;;;33.53;11.27;;;;;;;14.20;100.00;100246.50;5096500;28;20339;-53
2021/12/24 12:11:06;;;;;;;33.90;9.70;;;;;;;14.18;100.00;100246.72;5096519;28;20304;-50
2021/12/24 12:13:42;;;;;;;37.10;11.10;;;;;;;14.23;100.00;100247.88;5078079;28;20749;-50
2021/12/24 12:16:24;;;;;;;37.47;10.07;;;;;;;14.15;100.00;100241.81;5097017;28;20414;-52
2021/12/24 12:19:08;;;;;;;27.07;10.50;;;;;;;14.23;100.00;100247.88;5096720;28;20714;-54
2021/12/24 12:21:44;;;;;;;30.20;9.33;;;;;;;14.27;100.00;100254.41;5096001;28;20805;-52
2021/12/24 12:26:44;;;;;;;37.97;10.60;;;;;;;14.34;100.00;100239.00;5095989;28;20264;-52
2021/12/24 12:29:29;;;;;;;41.23;11.07;;;;;;;14.31;100.00;100244.84;5095703;28;20803;-49
2021/12/24 12:32:17;;;;;;;35.23;9.90;;;;;;;14.37;100.00;100240.38;5096385;28;20740;-50
2021/12/24 12:34:42;;;;;;;38.13;10.63;;;;;;;14.41;100.00;100253.13;5095865;28;20276;-49
2021/12/24 12:37:15;;;;;;;33.87;9.53;;;;;;;14.55;100.00;100260.97;5095795;28;20317;-52
2021/12/24 12:39:41;;;;;;;42.70;10.73;;;;;;;14.46;100.00;100257.81;5095665;28;20043;-52
2021/12/24 12:42:07;;;;;;;26.23;9.85;;;;;;;14.46;100.00;100258.63;5095952;28;20276;-51
2021/12/24 12:44:34;;;;;;;31.30;12.55;;;;;;;14.07;100.00;100250.22;5095784;28;20035;-53
2021/12/24 12:47:13;;;;;;;39.20;11.83;;;;;;;14.79;100.00;100255.56;5095844;28;20036;-52
2021/12/24 12:49:39;;;;;;;30.47;13.23;;;;;;;14.26;100.00;100252.78;5077990;28;20272;-53
2021/12/24 12:52:10;;;;;;;33.60;12.57;;;;;;;14.60;100.00;100255.69;5095823;28;20268;-54
2021/12/24 12:54:42;;;;;;;53.17;14.80;;;;;;;14.62;100.00;100250.88;5096031;28;20074;-53